sensor_id;sensor_type;location;lat;lon;timestamp;temperature;humidity
39865;DHT22;25538;48.392;9.976;2022-10-13T00:01:46;11.20;99.90
39865;DHT22;25538;48.392;9.976;2022-10-13T00:04:12;11.30;99.90
39865;DHT22;25538;48.392;9.976;2022-10-13T00:06:38;11.30;99.90
39865;DHT22;25538;48.392;9.976;2022-10-13T00:09:04;11.30;99.90
39865;DHT22;25538;48.392;9.976;2022-10-13T00:11:30;11.40;99.90
39865;DHT22;25538;48.392;9.976;2022-10-13T00:13:59;11.50;99.90
39865;DHT22;25538;48.392;9.976;2022-10-13T00:16:26;11.40;99.90
39865;DHT22;25538;48.392;9.976;2022-10-13T00:18:52;11.40;99.90
39865;DHT22;25538;48.392;9.976;2022-10-13T00:21:21;11.40;99.90
39865;DHT22;25538;48.392;9.976;2022-10-13T00:23:48;11.50;99.90
39865;DHT22;25538;48.392;9.976;2022-10-13T00:26:15;11.40;99.90
39865;DHT22;25538;48.392;9.976;2022-10-13T00:28:41;11.40;99.90
39865;DHT22;25538;48.392;9.976;2022-10-13T00:33:47;11.30;99.90
39865;DHT22;25538;48.392;9.976;2022-10-13T00:36:14;11.40;99.90
39865;DHT22;25538;48.392;9.976;2022-10-13T00:38:41;11.40;99.90
39865;DHT22;25538;48.392;9.976;2022-10-13T00:41:07;11.40;99.90
39865;DHT22;25538;48.392;9.976;2022-10-13T00:46:14;11.30;99.90
39865;DHT22;25538;48.392;9.976;2022-10-13T00:48:41;11.30;99.90
39865;DHT22;25538;48.392;9.976;2022-10-13T00:51:08;11.40;99.90
39865;DHT22;25538;48.392;9.976;2022-10-13T00:53:37;11.40;99.90
39865;DHT22;25538;48.392;9.976;2022-10-13T00:56:05;11.40;99.90
39865;DHT22;25538;48.392;9.976;2022-10-13T00:58:31;11.40;99.90
39865;DHT22;25538;48.392;9.976;2022-10-13T01:00:58;11.30;99.90
39865;DHT22;25538;48.392;9.976;2022-10-13T01:03:25;11.30;99.90
39865;DHT22;25538;48.392;9.976;2022-10-13T01:05:56;11.30;99.90
39865;DHT22;25538;48.392;9.976;2022-10-13T01:08:22;11.20;99.90
39865;DHT22;25538;48.392;9.976;2022-10-13T01:11:05;11.30;99.90
39865;DHT22;25538;48.392;9.976;2022-10-13T01:13:57;11.30;99.90
39865;DHT22;25538;48.392;9.976;2022-10-13T01:25:09;11.10;99.90
39865;DHT22;25538;48.392;9.976;2022-10-13T01:30:16;11.00;99.90
39865;DHT22;25538;48.392;9.976;2022-10-13T01:32:47;11.00;99.90
39865;DHT22;25538;48.392;9.976;2022-10-13T01:35:42;11.00;99.90
39865;DHT22;25538;48.392;9.976;2022-10-13T01:40:43;11.00;99.90
39865;DHT22;25538;48.392;9.976;2022-10-13T01:43:42;11.00;99.90
39865;DHT22;25538;48.392;9.976;2022-10-13T01:46:16;11.00;99.90
39865;DHT22;25538;48.392;9.976;2022-10-13T01:48:44;10.90;99.90
39865;DHT22;25538;48.392;9.976;2022-10-13T01:51:14;10.90;99.90
39865;DHT22;25538;48.392;9.976;2022-10-13T01:53:41;10.90;99.90
39865;DHT22;25538;48.392;9.976;2022-10-13T01:56:08;10.90;99.90
39865;DHT22;25538;48.392;9.976;2022-10-13T01:58:35;10.90;99.90
39865;DHT22;25538;48.392;9.976;2022-10-13T02:06:34;10.90;99.90
39865;DHT22;25538;48.392;9.976;2022-10-13T02:09:10;10.90;99.90
39865;DHT22;25538;48.392;9.976;2022-10-13T02:11:42;10.80;99.90
39865;DHT22;25538;48.392;9.976;2022-10-13T02:14:21;10.70;99.90
39865;DHT22;25538;48.392;9.976;2022-10-13T02:16:50;10.70;99.90
39865;DHT22;25538;48.392;9.976;2022-10-13T02:19:17;10.70;99.90
39865;DHT22;25538;48.392;9.976;2022-10-13T02:21:43;10.60;99.90
39865;DHT22;25538;48.392;9.976;2022-10-13T02:24:10;10.60;99.90
39865;DHT22;25538;48.392;9.976;2022-10-13T02:26:37;10.50;99.90
39865;DHT22;25538;48.392;9.976;2022-10-13T02:29:07;10.50;99.90
39865;DHT22;25538;48.392;9.976;2022-10-13T02:31:34;10.50;99.90
39865;DHT22;25538;48.392;9.976;2022-10-13T02:34:00;10.60;99.90
39865;DHT22;25538;48.392;9.976;2022-10-13T02:36:25;10.60;99.90
39865;DHT22;25538;48.392;9.976;2022-10-13T02:38:51;10.60;99.90
39865;DHT22;25538;48.392;9.976;2022-10-13T02:41:17;10.60;99.90
39865;DHT22;25538;48.392;9.976;2022-10-13T02:43:43;10.70;99.90
39865;DHT22;25538;48.392;9.976;2022-10-13T02:46:09;10.80;99.90
39865;DHT22;25538;48.392;9.976;2022-10-13T02:48:35;10.80;99.90
39865;DHT22;25538;48.392;9.976;2022-10-13T02:51:01;10.90;99.90
39865;DHT22;25538;48.392;9.976;2022-10-13T02:53:26;10.90;99.90
39865;DHT22;25538;48.392;9.976;2022-10-13T02:55:52;10.90;99.90
39865;DHT22;25538;48.392;9.976;2022-10-13T02:58:18;10.90;99.90
39865;DHT22;25538;48.392;9.976;2022-10-13T03:00:44;10.90;99.90
39865;DHT22;25538;48.392;9.976;2022-10-13T03:03:10;10.90;99.90
39865;DHT22;25538;48.392;9.976;2022-10-13T03:05:37;11.00;99.90
39865;DHT22;25538;48.392;9.976;2022-10-13T03:08:03;11.10;99.90
39865;DHT22;25538;48.392;9.976;2022-10-13T03:10:29;11.10;99.90
39865;DHT22;25538;48.392;9.976;2022-10-13T03:12:57;11.10;99.90
39865;DHT22;25538;48.392;9.976;2022-10-13T03:15:23;11.10;99.90
39865;DHT22;25538;48.392;9.976;2022-10-13T03:17:49;11.10;99.90
39865;DHT22;25538;48.392;9.976;2022-10-13T03:20:15;11.10;99.90
39865;DHT22;25538;48.392;9.976;2022-10-13T03:22:41;11.20;99.90
39865;DHT22;25538;48.392;9.976;2022-10-13T03:25:07;11.20;99.90
39865;DHT22;25538;48.392;9.976;2022-10-13T03:27:34;11.10;99.90
39865;DHT22;25538;48.392;9.976;2022-10-13T03:30:01;11.20;99.90
39865;DHT22;25538;48.392;9.976;2022-10-13T03:32:29;11.20;99.90
39865;DHT22;25538;48.392;9.976;2022-10-13T03:34:55;11.20;99.90
39865;DHT22;25538;48.392;9.976;2022-10-13T03:37:21;11.20;99.90
39865;DHT22;25538;48.392;9.976;2022-10-13T03:39:47;11.20;99.90
39865;DHT22;25538;48.392;9.976;2022-10-13T03:42:14;11.30;99.90
39865;DHT22;25538;48.392;9.976;2022-10-13T03:44:40;11.30;99.90
39865;DHT22;25538;48.392;9.976;2022-10-13T03:47:05;11.30;99.90
39865;DHT22;25538;48.392;9.976;2022-10-13T03:49:31;11.30;99.90
39865;DHT22;25538;48.392;9.976;2022-10-13T03:51:57;11.20;99.90
39865;DHT22;25538;48.392;9.976;2022-10-13T03:54:23;11.20;99.90
39865;DHT22;25538;48.392;9.976;2022-10-13T03:56:49;11.10;99.90
39865;DHT22;25538;48.392;9.976;2022-10-13T03:59:15;11.10;99.90
39865;DHT22;25538;48.392;9.976;2022-10-13T04:01:44;11.20;99.90
39865;DHT22;25538;48.392;9.976;2022-10-13T04:04:11;11.20;99.90
39865;DHT22;25538;48.392;9.976;2022-10-13T04:06:37;11.30;99.90
39865;DHT22;25538;48.392;9.976;2022-10-13T04:09:03;11.30;99.90
39865;DHT22;25538;48.392;9.976;2022-10-13T04:11:29;11.40;99.90
39865;DHT22;25538;48.392;9.976;2022-10-13T04:13:56;11.40;99.90
39865;DHT22;25538;48.392;9.976;2022-10-13T04:16:26;11.40;99.90
39865;DHT22;25538;48.392;9.976;2022-10-13T04:19:03;11.40;99.90
39865;DHT22;25538;48.392;9.976;2022-10-13T04:21:30;11.50;99.90
39865;DHT22;25538;48.392;9.976;2022-10-13T04:23:58;11.50;99.90
39865;DHT22;25538;48.392;9.976;2022-10-13T04:26:27;11.50;99.90
39865;DHT22;25538;48.392;9.976;2022-10-13T04:28:54;11.50;99.90
39865;DHT22;25538;48.392;9.976;2022-10-13T04:31:21;11.50;99.90
39865;DHT22;25538;48.392;9.976;2022-10-13T04:33:48;11.50;99.90
39865;DHT22;25538;48.392;9.976;2022-10-13T04:36:14;11.50;99.90
39865;DHT22;25538;48.392;9.976;2022-10-13T04:38:41;11.60;99.90
39865;DHT22;25538;48.392;9.976;2022-10-13T04:41:08;11.60;99.90
39865;DHT22;25538;48.392;9.976;2022-10-13T04:43:35;11.60;99.90
39865;DHT22;25538;48.392;9.976;2022-10-13T04:46:05;11.60;99.90
39865;DHT22;25538;48.392;9.976;2022-10-13T04:48:31;11.60;99.90
39865;DHT22;25538;48.392;9.976;2022-10-13T04:51:06;11.60;99.90
39865;DHT22;25538;48.392;9.976;2022-10-13T04:53:32;11.60;99.90
39865;DHT22;25538;48.392;9.976;2022-10-13T04:56:07;11.70;99.90
39865;DHT22;25538;48.392;9.976;2022-10-13T04:58:33;11.70;99.90
39865;DHT22;25538;48.392;9.976;2022-10-13T05:01:00;11.60;99.90
39865;DHT22;25538;48.392;9.976;2022-10-13T05:03:26;11.60;99.90
39865;DHT22;25538;48.392;9.976;2022-10-13T05:05:53;11.70;99.90
39865;DHT22;25538;48.392;9.976;2022-10-13T05:08:19;11.70;99.90
39865;DHT22;25538;48.392;9.976;2022-10-13T05:11:00;11.70;99.90
39865;DHT22;25538;48.392;9.976;2022-10-13T05:13:28;11.70;99.90
39865;DHT22;25538;48.392;9.976;2022-10-13T05:15:54;11.80;99.90
39865;DHT22;25538;48.392;9.976;2022-10-13T05:18:20;11.80;99.90
39865;DHT22;25538;48.392;9.976;2022-10-13T05:20:46;11.80;99.90
39865;DHT22;25538;48.392;9.976;2022-10-13T05:23:13;11.80;99.90
39865;DHT22;25538;48.392;9.976;2022-10-13T05:25:39;11.90;99.90
39865;DHT22;25538;48.392;9.976;2022-10-13T05:28:07;11.90;99.90
39865;DHT22;25538;48.392;9.976;2022-10-13T05:30:33;11.80;99.90
39865;DHT22;25538;48.392;9.976;2022-10-13T05:33:00;11.80;99.90
39865;DHT22;25538;48.392;9.976;2022-10-13T05:35:26;11.80;99.90
39865;DHT22;25538;48.392;9.976;2022-10-13T05:37:52;11.80;99.90
39865;DHT22;25538;48.392;9.976;2022-10-13T05:40:18;11.80;99.90
39865;DHT22;25538;48.392;9.976;2022-10-13T05:42:49;11.80;99.90
39865;DHT22;25538;48.392;9.976;2022-10-13T05:45:16;11.90;99.90
39865;DHT22;25538;48.392;9.976;2022-10-13T05:47:42;11.90;99.90
39865;DHT22;25538;48.392;9.976;2022-10-13T05:50:09;11.90;99.90
39865;DHT22;25538;48.392;9.976;2022-10-13T05:52:36;11.90;99.90
39865;DHT22;25538;48.392;9.976;2022-10-13T05:55:04;11.90;99.90
39865;DHT22;25538;48.392;9.976;2022-10-13T05:57:36;11.90;99.90
39865;DHT22;25538;48.392;9.976;2022-10-13T06:00:29;11.90;99.90
39865;DHT22;25538;48.392;9.976;2022-10-13T06:05:28;11.80;99.90
39865;DHT22;25538;48.392;9.976;2022-10-13T06:07:56;11.90;99.90
39865;DHT22;25538;48.392;9.976;2022-10-13T06:10:23;11.90;99.90
39865;DHT22;25538;48.392;9.976;2022-10-13T06:12:49;11.90;99.90
39865;DHT22;25538;48.392;9.976;2022-10-13T06:15:15;11.90;99.90
39865;DHT22;25538;48.392;9.976;2022-10-13T06:17:41;11.90;99.90
39865;DHT22;25538;48.392;9.976;2022-10-13T06:20:08;11.90;99.90
39865;DHT22;25538;48.392;9.976;2022-10-13T06:22:35;12.00;99.90
39865;DHT22;25538;48.392;9.976;2022-10-13T06:25:03;12.00;99.90
39865;DHT22;25538;48.392;9.976;2022-10-13T06:27:29;12.00;99.90
39865;DHT22;25538;48.392;9.976;2022-10-13T06:29:56;12.00;99.90
39865;DHT22;25538;48.392;9.976;2022-10-13T06:32:22;12.00;99.90
39865;DHT22;25538;48.392;9.976;2022-10-13T06:34:48;12.00;99.90
39865;DHT22;25538;48.392;9.976;2022-10-13T06:37:14;12.10;99.90
39865;DHT22;25538;48.392;9.976;2022-10-13T06:39:40;12.10;99.90
39865;DHT22;25538;48.392;9.976;2022-10-13T06:42:07;12.20;99.90
39865;DHT22;25538;48.392;9.976;2022-10-13T06:44:33;12.20;99.90
39865;DHT22;25538;48.392;9.976;2022-10-13T06:46:59;12.30;99.90
39865;DHT22;25538;48.392;9.976;2022-10-13T06:49:25;12.40;99.90
39865;DHT22;25538;48.392;9.976;2022-10-13T06:51:51;12.40;99.90
39865;DHT22;25538;48.392;9.976;2022-10-13T06:54:17;12.50;99.90
39865;DHT22;25538;48.392;9.976;2022-10-13T06:56:44;12.60;99.90
39865;DHT22;25538;48.392;9.976;2022-10-13T06:59:10;12.70;99.90
39865;DHT22;25538;48.392;9.976;2022-10-13T07:01:36;12.90;99.90
39865;DHT22;25538;48.392;9.976;2022-10-13T07:04:02;13.00;99.90
39865;DHT22;25538;48.392;9.976;2022-10-13T07:06:28;13.20;99.90
39865;DHT22;25538;48.392;9.976;2022-10-13T07:08:54;13.20;99.90
39865;DHT22;25538;48.392;9.976;2022-10-13T07:11:20;13.20;99.90
39865;DHT22;25538;48.392;9.976;2022-10-13T07:13:46;13.20;99.90
39865;DHT22;25538;48.392;9.976;2022-10-13T07:16:12;13.20;99.90
39865;DHT22;25538;48.392;9.976;2022-10-13T07:18:38;13.20;99.90
39865;DHT22;25538;48.392;9.976;2022-10-13T07:21:04;13.20;99.90
39865;DHT22;25538;48.392;9.976;2022-10-13T07:23:31;13.30;99.90
39865;DHT22;25538;48.392;9.976;2022-10-13T07:25:57;13.40;99.90
39865;DHT22;25538;48.392;9.976;2022-10-13T07:28:25;13.40;99.90
39865;DHT22;25538;48.392;9.976;2022-10-13T07:30:51;13.50;99.90
39865;DHT22;25538;48.392;9.976;2022-10-13T07:33:18;13.60;99.90
39865;DHT22;25538;48.392;9.976;2022-10-13T07:35:44;13.60;99.90
39865;DHT22;25538;48.392;9.976;2022-10-13T07:38:11;13.70;99.90
39865;DHT22;25538;48.392;9.976;2022-10-13T07:40:37;13.70;99.90
39865;DHT22;25538;48.392;9.976;2022-10-13T07:43:03;13.90;99.90
39865;DHT22;25538;48.392;9.976;2022-10-13T07:45:30;14.10;99.90
39865;DHT22;25538;48.392;9.976;2022-10-13T07:47:56;14.30;99.90
39865;DHT22;25538;48.392;9.976;2022-10-13T07:50:22;14.50;99.90
39865;DHT22;25538;48.392;9.976;2022-10-13T07:52:48;14.70;99.90
39865;DHT22;25538;48.392;9.976;2022-10-13T07:55:14;15.00;99.90
39865;DHT22;25538;48.392;9.976;2022-10-13T07:57:40;15.50;99.90
39865;DHT22;25538;48.392;9.976;2022-10-13T08:00:06;15.80;99.90
39865;DHT22;25538;48.392;9.976;2022-10-13T08:02:33;16.10;99.90
39865;DHT22;25538;48.392;9.976;2022-10-13T08:04:59;16.50;99.90
39865;DHT22;25538;48.392;9.976;2022-10-13T08:07:25;17.00;99.90
39865;DHT22;25538;48.392;9.976;2022-10-13T08:09:51;17.60;99.90
39865;DHT22;25538;48.392;9.976;2022-10-13T08:12:17;17.90;99.90
39865;DHT22;25538;48.392;9.976;2022-10-13T08:14:43;18.30;99.90
39865;DHT22;25538;48.392;9.976;2022-10-13T08:17:09;18.10;99.90
39865;DHT22;25538;48.392;9.976;2022-10-13T08:19:35;18.20;99.90
39865;DHT22;25538;48.392;9.976;2022-10-13T08:22:01;18.20;99.90
39865;DHT22;25538;48.392;9.976;2022-10-13T08:24:27;18.20;99.90
39865;DHT22;25538;48.392;9.976;2022-10-13T08:26:54;18.00;99.90
39865;DHT22;25538;48.392;9.976;2022-10-13T08:29:20;17.90;99.90
39865;DHT22;25538;48.392;9.976;2022-10-13T08:31:46;18.10;99.90
39865;DHT22;25538;48.392;9.976;2022-10-13T08:34:12;18.00;99.90
39865;DHT22;25538;48.392;9.976;2022-10-13T08:36:38;18.40;99.90
39865;DHT22;25538;48.392;9.976;2022-10-13T08:39:05;18.40;99.90
39865;DHT22;25538;48.392;9.976;2022-10-13T08:41:37;18.60;99.90
39865;DHT22;25538;48.392;9.976;2022-10-13T08:44:25;18.80;99.90
39865;DHT22;25538;48.392;9.976;2022-10-13T08:47:32;18.30;99.90
39865;DHT22;25538;48.392;9.976;2022-10-13T08:49:59;18.00;99.90
39865;DHT22;25538;48.392;9.976;2022-10-13T08:52:29;18.20;99.90
39865;DHT22;25538;48.392;9.976;2022-10-13T08:55:20;18.50;99.90
39865;DHT22;25538;48.392;9.976;2022-10-13T08:57:47;18.30;99.90
39865;DHT22;25538;48.392;9.976;2022-10-13T09:00:13;18.00;99.90
39865;DHT22;25538;48.392;9.976;2022-10-13T09:02:42;17.90;99.90
39865;DHT22;25538;48.392;9.976;2022-10-13T09:05:13;17.90;99.90
39865;DHT22;25538;48.392;9.976;2022-10-13T09:07:44;17.70;99.90
39865;DHT22;25538;48.392;9.976;2022-10-13T09:10:10;17.70;99.90
39865;DHT22;25538;48.392;9.976;2022-10-13T09:12:36;17.50;99.90
39865;DHT22;25538;48.392;9.976;2022-10-13T09:15:09;17.90;99.90
39865;DHT22;25538;48.392;9.976;2022-10-13T09:17:37;18.00;99.90
39865;DHT22;25538;48.392;9.976;2022-10-13T09:20:19;18.90;99.90
39865;DHT22;25538;48.392;9.976;2022-10-13T09:23:02;19.80;99.90
39865;DHT22;25538;48.392;9.976;2022-10-13T09:25:30;20.50;99.90
39865;DHT22;25538;48.392;9.976;2022-10-13T09:28:13;20.70;99.90
39865;DHT22;25538;48.392;9.976;2022-10-13T09:30:45;21.00;99.90
39865;DHT22;25538;48.392;9.976;2022-10-13T09:38:24;19.10;99.90
39865;DHT22;25538;48.392;9.976;2022-10-13T09:41:13;18.60;99.90
39865;DHT22;25538;48.392;9.976;2022-10-13T09:43:43;18.30;99.90
39865;DHT22;25538;48.392;9.976;2022-10-13T09:46:58;18.00;99.90
39865;DHT22;25538;48.392;9.976;2022-10-13T09:52:05;17.40;99.90
39865;DHT22;25538;48.392;9.976;2022-10-13T09:57:47;17.40;99.90
39865;DHT22;25538;48.392;9.976;2022-10-13T10:00:01;17.60;99.90
39865;DHT22;25538;48.392;9.976;2022-10-13T10:05:53;17.40;99.90
39865;DHT22;25538;48.392;9.976;2022-10-13T10:11:04;17.50;99.90
39865;DHT22;25538;48.392;9.976;2022-10-13T10:13:34;17.60;99.90
39865;DHT22;25538;48.392;9.976;2022-10-13T10:16:27;17.70;99.90
39865;DHT22;25538;48.392;9.976;2022-10-13T10:19:06;17.80;99.90
39865;DHT22;25538;48.392;9.976;2022-10-13T10:21:43;18.00;99.90
39865;DHT22;25538;48.392;9.976;2022-10-13T10:24:25;18.10;99.90
39865;DHT22;25538;48.392;9.976;2022-10-13T10:26:58;18.10;99.90
39865;DHT22;25538;48.392;9.976;2022-10-13T10:29:49;18.50;99.90
39865;DHT22;25538;48.392;9.976;2022-10-13T10:32:30;18.90;99.90
39865;DHT22;25538;48.392;9.976;2022-10-13T10:40:48;20.00;99.90
39865;DHT22;25538;48.392;9.976;2022-10-13T10:46:24;20.30;99.90
39865;DHT22;25538;48.392;9.976;2022-10-13T10:48:56;19.80;99.90
39865;DHT22;25538;48.392;9.976;2022-10-13T10:51:29;19.10;99.90
39865;DHT22;25538;48.392;9.976;2022-10-13T10:54:24;18.70;99.90
39865;DHT22;25538;48.392;9.976;2022-10-13T11:04:52;18.70;99.90
39865;DHT22;25538;48.392;9.976;2022-10-13T11:15:02;21.00;99.90
39865;DHT22;25538;48.392;9.976;2022-10-13T11:17:34;20.90;99.90
39865;DHT22;25538;48.392;9.976;2022-10-13T11:30:51;19.80;99.90
39865;DHT22;25538;48.392;9.976;2022-10-13T11:33:34;19.20;99.90
39865;DHT22;25538;48.392;9.976;2022-10-13T11:47:49;18.60;99.90
39865;DHT22;25538;48.392;9.976;2022-10-13T11:53:17;18.50;99.90
39865;DHT22;25538;48.392;9.976;2022-10-13T11:55:56;18.40;99.90
39865;DHT22;25538;48.392;9.976;2022-10-13T11:58:30;18.50;99.90
39865;DHT22;25538;48.392;9.976;2022-10-13T12:01:01;18.60;99.90
39865;DHT22;25538;48.392;9.976;2022-10-13T12:03:31;18.50;99.90
39865;DHT22;25538;48.392;9.976;2022-10-13T12:06:06;18.60;99.90
39865;DHT22;25538;48.392;9.976;2022-10-13T12:08:46;18.40;99.90
39865;DHT22;25538;48.392;9.976;2022-10-13T12:11:28;18.20;99.90
39865;DHT22;25538;48.392;9.976;2022-10-13T12:13:55;18.00;99.90
39865;DHT22;25538;48.392;9.976;2022-10-13T12:16:21;17.80;99.90
39865;DHT22;25538;48.392;9.976;2022-10-13T12:18:47;17.70;99.90
39865;DHT22;25538;48.392;9.976;2022-10-13T12:21:19;17.80;99.90
39865;DHT22;25538;48.392;9.976;2022-10-13T12:23:50;17.90;99.90
39865;DHT22;25538;48.392;9.976;2022-10-13T12:26:21;18.00;99.90
39865;DHT22;25538;48.392;9.976;2022-10-13T12:31:23;18.00;99.90
39865;DHT22;25538;48.392;9.976;2022-10-13T12:34:00;18.20;99.90
39865;DHT22;25538;48.392;9.976;2022-10-13T12:36:31;18.20;99.90
39865;DHT22;25538;48.392;9.976;2022-10-13T12:39:04;17.90;99.90
39865;DHT22;25538;48.392;9.976;2022-10-13T12:41:41;17.90;99.90
39865;DHT22;25538;48.392;9.976;2022-10-13T12:44:13;17.90;99.90
39865;DHT22;25538;48.392;9.976;2022-10-13T12:46:45;17.80;99.90
39865;DHT22;25538;48.392;9.976;2022-10-13T12:49:14;17.80;99.90
39865;DHT22;25538;48.392;9.976;2022-10-13T12:51:42;17.70;99.90
39865;DHT22;25538;48.392;9.976;2022-10-13T12:54:26;17.80;99.90
39865;DHT22;25538;48.392;9.976;2022-10-13T12:56:57;17.90;99.90
39865;DHT22;25538;48.392;9.976;2022-10-13T12:59:25;17.80;99.90
39865;DHT22;25538;48.392;9.976;2022-10-13T13:02:03;17.80;99.90
39865;DHT22;25538;48.392;9.976;2022-10-13T13:04:41;17.90;99.90
39865;DHT22;25538;48.392;9.976;2022-10-13T13:07:32;17.80;99.90
39865;DHT22;25538;48.392;9.976;2022-10-13T13:12:27;17.50;99.90
39865;DHT22;25538;48.392;9.976;2022-10-13T13:14:55;17.30;99.90
39865;DHT22;25538;48.392;9.976;2022-10-13T13:17:24;17.20;99.90
39865;DHT22;25538;48.392;9.976;2022-10-13T13:19:53;17.20;99.90
39865;DHT22;25538;48.392;9.976;2022-10-13T13:22:20;17.20;99.90
39865;DHT22;25538;48.392;9.976;2022-10-13T13:24:46;17.30;99.90
39865;DHT22;25538;48.392;9.976;2022-10-13T13:27:24;17.50;99.90
39865;DHT22;25538;48.392;9.976;2022-10-13T13:29:54;17.60;99.90
39865;DHT22;25538;48.392;9.976;2022-10-13T13:32:23;18.00;99.90
39865;DHT22;25538;48.392;9.976;2022-10-13T13:34:49;18.50;99.90
39865;DHT22;25538;48.392;9.976;2022-10-13T13:37:34;18.80;99.90
39865;DHT22;25538;48.392;9.976;2022-10-13T13:40:01;19.20;99.90
39865;DHT22;25538;48.392;9.976;2022-10-13T13:42:28;19.10;99.90
39865;DHT22;25538;48.392;9.976;2022-10-13T13:44:55;19.00;99.90
39865;DHT22;25538;48.392;9.976;2022-10-13T13:47:23;19.00;99.90
39865;DHT22;25538;48.392;9.976;2022-10-13T13:49:51;19.20;99.90
39865;DHT22;25538;48.392;9.976;2022-10-13T13:52:22;19.30;99.90
39865;DHT22;25538;48.392;9.976;2022-10-13T13:54:48;19.10;99.90
39865;DHT22;25538;48.392;9.976;2022-10-13T13:57:18;18.80;99.90
39865;DHT22;25538;48.392;9.976;2022-10-13T13:59:44;18.60;99.90
39865;DHT22;25538;48.392;9.976;2022-10-13T14:02:17;18.40;99.90
39865;DHT22;25538;48.392;9.976;2022-10-13T14:04:43;18.30;99.90
39865;DHT22;25538;48.392;9.976;2022-10-13T14:07:10;18.30;99.90
39865;DHT22;25538;48.392;9.976;2022-10-13T14:09:36;19.20;99.90
39865;DHT22;25538;48.392;9.976;2022-10-13T14:12:02;20.40;99.90
39865;DHT22;25538;48.392;9.976;2022-10-13T14:14:29;20.90;99.90
39865;DHT22;25538;48.392;9.976;2022-10-13T14:16:57;20.90;99.90
39865;DHT22;25538;48.392;9.976;2022-10-13T14:19:23;20.40;99.90
39865;DHT22;25538;48.392;9.976;2022-10-13T14:21:49;19.80;99.90
39865;DHT22;25538;48.392;9.976;2022-10-13T14:24:15;19.20;99.90
39865;DHT22;25538;48.392;9.976;2022-10-13T14:26:41;18.80;99.90
39865;DHT22;25538;48.392;9.976;2022-10-13T14:29:07;18.60;99.90
39865;DHT22;25538;48.392;9.976;2022-10-13T14:31:33;18.20;99.90
39865;DHT22;25538;48.392;9.976;2022-10-13T14:33:59;18.20;99.90
39865;DHT22;25538;48.392;9.976;2022-10-13T14:36:25;18.10;99.90
39865;DHT22;25538;48.392;9.976;2022-10-13T14:38:51;17.90;99.90
39865;DHT22;25538;48.392;9.976;2022-10-13T14:41:17;17.80;99.90
39865;DHT22;25538;48.392;9.976;2022-10-13T14:43:43;17.60;99.90
39865;DHT22;25538;48.392;9.976;2022-10-13T14:46:09;17.60;99.90
39865;DHT22;25538;48.392;9.976;2022-10-13T14:48:36;17.50;99.90
39865;DHT22;25538;48.392;9.976;2022-10-13T14:51:06;17.40;99.90
39865;DHT22;25538;48.392;9.976;2022-10-13T14:53:38;17.40;99.90
39865;DHT22;25538;48.392;9.976;2022-10-13T14:56:31;17.30;99.90
39865;DHT22;25538;48.392;9.976;2022-10-13T14:58:59;17.20;99.90
39865;DHT22;25538;48.392;9.976;2022-10-13T15:01:25;17.20;99.90
39865;DHT22;25538;48.392;9.976;2022-10-13T15:03:51;17.10;99.90
39865;DHT22;25538;48.392;9.976;2022-10-13T15:06:21;17.00;99.90
39865;DHT22;25538;48.392;9.976;2022-10-13T15:08:48;16.90;99.90
39865;DHT22;25538;48.392;9.976;2022-10-13T15:11:15;16.80;99.90
39865;DHT22;25538;48.392;9.976;2022-10-13T15:13:42;16.70;99.90
39865;DHT22;25538;48.392;9.976;2022-10-13T15:16:18;16.70;99.90
39865;DHT22;25538;48.392;9.976;2022-10-13T15:18:44;16.70;99.90
39865;DHT22;25538;48.392;9.976;2022-10-13T15:21:10;16.60;99.90
39865;DHT22;25538;48.392;9.976;2022-10-13T15:23:36;16.70;99.90
39865;DHT22;25538;48.392;9.976;2022-10-13T15:26:02;16.70;99.90
39865;DHT22;25538;48.392;9.976;2022-10-13T15:28:38;16.60;99.90
39865;DHT22;25538;48.392;9.976;2022-10-13T15:31:05;16.70;99.90
39865;DHT22;25538;48.392;9.976;2022-10-13T15:33:31;16.70;99.90
39865;DHT22;25538;48.392;9.976;2022-10-13T15:35:58;16.70;99.90
39865;DHT22;25538;48.392;9.976;2022-10-13T15:38:24;16.70;99.90
39865;DHT22;25538;48.392;9.976;2022-10-13T15:40:51;16.60;99.90
39865;DHT22;25538;48.392;9.976;2022-10-13T15:43:18;16.50;99.90
39865;DHT22;25538;48.392;9.976;2022-10-13T15:45:55;16.30;99.90
39865;DHT22;25538;48.392;9.976;2022-10-13T15:48:21;16.20;99.90
39865;DHT22;25538;48.392;9.976;2022-10-13T15:50:47;16.20;99.90
39865;DHT22;25538;48.392;9.976;2022-10-13T15:53:13;16.20;99.90
39865;DHT22;25538;48.392;9.976;2022-10-13T15:55:39;16.20;99.90
39865;DHT22;25538;48.392;9.976;2022-10-13T15:58:05;16.10;99.90
39865;DHT22;25538;48.392;9.976;2022-10-13T16:00:32;16.10;99.90
39865;DHT22;25538;48.392;9.976;2022-10-13T16:02:58;16.00;99.90
39865;DHT22;25538;48.392;9.976;2022-10-13T16:05:24;16.00;99.90
39865;DHT22;25538;48.392;9.976;2022-10-13T16:07:50;15.90;99.90
39865;DHT22;25538;48.392;9.976;2022-10-13T16:10:16;15.90;99.90
39865;DHT22;25538;48.392;9.976;2022-10-13T16:12:42;15.80;99.90
39865;DHT22;25538;48.392;9.976;2022-10-13T16:15:09;15.80;99.90
39865;DHT22;25538;48.392;9.976;2022-10-13T16:17:35;15.80;99.90
39865;DHT22;25538;48.392;9.976;2022-10-13T16:20:03;15.80;99.90
39865;DHT22;25538;48.392;9.976;2022-10-13T16:22:30;15.70;99.90
39865;DHT22;25538;48.392;9.976;2022-10-13T16:24:56;15.70;99.90
39865;DHT22;25538;48.392;9.976;2022-10-13T16:27:22;15.70;99.90
39865;DHT22;25538;48.392;9.976;2022-10-13T16:29:49;15.70;99.90
39865;DHT22;25538;48.392;9.976;2022-10-13T16:32:15;15.60;99.90
39865;DHT22;25538;48.392;9.976;2022-10-13T16:34:41;15.60;99.90
39865;DHT22;25538;48.392;9.976;2022-10-13T16:37:07;15.60;99.90
39865;DHT22;25538;48.392;9.976;2022-10-13T16:39:33;15.50;99.90
39865;DHT22;25538;48.392;9.976;2022-10-13T16:41:59;15.50;99.90
39865;DHT22;25538;48.392;9.976;2022-10-13T16:44:25;15.50;99.90
39865;DHT22;25538;48.392;9.976;2022-10-13T16:46:51;15.50;99.90
39865;DHT22;25538;48.392;9.976;2022-10-13T16:49:18;15.50;99.90
39865;DHT22;25538;48.392;9.976;2022-10-13T16:51:44;15.40;99.90
39865;DHT22;25538;48.392;9.976;2022-10-13T16:54:10;15.40;99.90
39865;DHT22;25538;48.392;9.976;2022-10-13T16:56:36;15.30;99.90
39865;DHT22;25538;48.392;9.976;2022-10-13T16:59:04;15.30;99.90
39865;DHT22;25538;48.392;9.976;2022-10-13T17:01:32;15.30;99.90
39865;DHT22;25538;48.392;9.976;2022-10-13T17:03:58;15.30;99.90
39865;DHT22;25538;48.392;9.976;2022-10-13T17:06:26;15.30;99.90
39865;DHT22;25538;48.392;9.976;2022-10-13T17:08:57;15.30;99.90
39865;DHT22;25538;48.392;9.976;2022-10-13T17:11:26;15.30;99.90
39865;DHT22;25538;48.392;9.976;2022-10-13T17:13:52;15.30;99.90
39865;DHT22;25538;48.392;9.976;2022-10-13T17:16:20;15.30;99.90
39865;DHT22;25538;48.392;9.976;2022-10-13T17:18:45;15.30;99.90
39865;DHT22;25538;48.392;9.976;2022-10-13T17:21:13;15.30;99.90